Terminal Aerodrome Forecast
Issued by NWS Houston/Galveston, TX

Home | Current Version | Previous Version | Text Only | Print | Product List | Glossary On
Versions: 1 2 3 4 5 6 7 8 9 10 11 12 13 14 15 16 17 18 19 20 21 22 23 24 25 26
000
FTUS44 KHGX 290522
TAFGLS
TAF
KGLS 290522Z 2906/3006 14020G28KT P6SM OVC012
     FM290900 14015KT P6SM VCSH SCT007 OVC012
     FM291400 15015G25KT P6SM VCSH BKN025 OVC250
      TEMPO 2920/2924 VRB10G25KT 3SM SHRA BKN025 OVC060
     FM300300 19009KT 6SM BR BKN050=

USA.gov is the U.S. government's official web portal to all federal, state and local government web resources and services.